Time;durP1;ratioP1;P1;durP2;ratioP2;P2;SDS_P1;SDS_P2;PMS_P1;PMS_P2;Temp;Humidity;BMP_temperature;BMP_pressure;BME280_temperature;BME280_humidity;BME280_pressure;Samples;Min_cycle;Max_cycle;Signal;HPM_P1;HPM_P2
2024/01/11 00:01:44;0.00;0.00;0.62;0.00;0.00;0.62;6.70;4.97;;;16.70;17.30;;;;;;2256500;61;20440;-56
2024/01/11 00:04:29;0.00;0.00;0.62;0.00;0.00;0.62;6.17;5.07;;;16.70;17.30;;;;;;2256589;61;20402;-56
2024/01/11 00:07:13;0.00;0.00;0.62;0.00;0.00;0.62;6.57;5.60;;;16.70;17.30;;;;;;2256368;61;20377;-56
2024/01/11 00:10:00;0.00;0.00;0.62;0.00;0.00;0.62;7.40;5.00;;;16.70;17.30;;;;;;2256503;61;20398;-55
2024/01/11 00:12:45;0.00;0.00;0.62;0.00;0.00;0.62;6.27;5.00;;;16.70;17.30;;;;;;2255813;61;20394;-55
2024/01/11 00:15:29;0.00;0.00;0.62;0.00;0.00;0.62;5.80;4.80;;;16.70;17.30;;;;;;2256190;61;21051;-52
2024/01/11 00:18:14;0.00;0.00;0.62;0.00;0.00;0.62;7.97;4.57;;;16.70;17.30;;;;;;2256943;61;20362;-51
2024/01/11 00:20:59;0.00;0.00;0.62;0.00;0.00;0.62;5.70;4.53;;;16.70;17.30;;;;;;2256662;61;20481;-51
2024/01/11 00:23:43;0.00;0.00;0.62;0.00;0.00;0.62;6.77;5.30;;;16.70;17.30;;;;;;2256107;61;20446;-54
2024/01/11 00:26:29;0.00;0.00;0.62;0.00;0.00;0.62;5.80;4.93;;;16.70;17.30;;;;;;2256530;61;20365;-49
2024/01/11 00:29:14;0.00;0.00;0.62;0.00;0.00;0.62;5.30;4.80;;;16.70;17.30;;;;;;2256239;61;20370;-54
2024/01/11 00:31:58;0.00;0.00;0.62;0.00;0.00;0.62;6.13;4.40;;;16.70;17.30;;;;;;2255815;61;20848;-55
2024/01/11 00:34:43;0.00;0.00;0.62;0.00;0.00;0.62;6.57;5.00;;;16.70;17.30;;;;;;2256435;61;20436;-52
2024/01/11 00:37:28;0.00;0.00;0.62;0.00;0.00;0.62;7.00;5.77;;;16.60;17.20;;;;;;2256177;61;20369;-57
2024/01/11 00:40:12;0.00;0.00;0.62;0.00;0.00;0.62;5.87;5.27;;;16.60;17.30;;;;;;2256573;61;20435;-55
2024/01/11 00:42:59;0.00;0.00;0.62;0.00;0.00;0.62;6.37;4.50;;;16.60;17.30;;;;;;2256106;61;20365;-56
2024/01/11 00:45:45;0.00;0.00;0.62;0.00;0.00;0.62;5.73;4.67;;;16.70;17.30;;;;;;2256256;61;20370;-52
2024/01/11 00:48:30;0.00;0.00;0.62;0.00;0.00;0.62;5.97;4.90;;;16.60;17.30;;;;;;2256495;61;20401;-55
2024/01/11 00:51:15;0.00;0.00;0.62;0.00;0.00;0.62;5.63;4.53;;;16.60;17.30;;;;;;2256114;61;20401;-54
2024/01/11 00:54:00;0.00;0.00;0.62;0.00;0.00;0.62;6.10;4.83;;;16.60;17.30;;;;;;2256220;61;20836;-54
2024/01/11 00:56:44;0.00;0.00;0.62;0.00;0.00;0.62;5.90;4.60;;;16.60;17.30;;;;;;2256576;61;20389;-52
2024/01/11 00:59:30;0.00;0.00;0.62;0.00;0.00;0.62;4.80;4.27;;;16.60;17.30;;;;;;2256131;61;20408;-55
2024/01/11 01:02:15;0.00;0.00;0.62;0.00;0.00;0.62;5.77;4.37;;;16.60;17.30;;;;;;2255813;61;20394;-52
2024/01/11 01:04:59;0.00;0.00;0.62;0.00;0.00;0.62;5.90;4.73;;;16.60;17.30;;;;;;2256524;61;20917;-52
2024/01/11 01:07:45;0.00;0.00;0.62;0.00;0.00;0.62;5.73;4.57;;;16.60;17.30;;;;;;2255854;61;20911;-52
2024/01/11 01:10:30;0.00;0.00;0.62;0.00;0.00;0.62;6.27;4.37;;;16.60;17.30;;;;;;2256285;61;20381;-58
2024/01/11 01:13:14;0.00;0.00;0.62;0.00;0.00;0.62;6.13;4.93;;;16.60;17.30;;;;;;2255907;61;20811;-55
2024/01/11 01:16:00;0.00;0.00;0.62;0.00;0.00;0.62;5.33;4.50;;;16.60;17.30;;;;;;2256356;61;20512;-52
2024/01/11 01:18:45;0.00;0.00;0.62;0.00;0.00;0.62;7.10;4.70;;;16.60;17.30;;;;;;2256388;61;20832;-53
2024/01/11 01:21:30;0.00;0.00;0.62;0.00;0.00;0.62;6.13;4.90;;;16.60;17.30;;;;;;2256135;61;20910;-52
2024/01/11 01:24:14;0.00;0.00;0.62;0.00;0.00;0.62;6.10;5.47;;;16.60;17.30;;;;;;2256341;61;20461;-55
2024/01/11 01:26:59;0.00;0.00;0.62;0.00;0.00;0.62;6.50;5.00;;;16.60;17.30;;;;;;2256371;61;20945;-53
2024/01/11 01:29:43;0.00;0.00;0.62;0.00;0.00;0.62;5.60;4.00;;;16.60;17.30;;;;;;2255905;61;20452;-53
2024/01/11 01:32:30;0.00;0.00;0.62;0.00;0.00;0.62;6.90;5.10;;;16.60;17.30;;;;;;2255991;61;20413;-54
2024/01/11 01:35:15;0.00;0.00;0.62;0.00;0.00;0.62;6.13;5.17;;;16.60;17.30;;;;;;2256581;61;20354;-50
2024/01/11 01:38:00;0.00;0.00;0.62;0.00;0.00;0.62;5.27;4.77;;;16.60;17.30;;;;;;2256401;61;20819;-56
2024/01/11 01:40:44;0.00;0.00;0.62;0.00;0.00;0.62;4.93;4.17;;;16.60;17.30;;;;;;2256351;61;20408;-52
2024/01/11 01:43:29;0.00;0.00;0.62;0.00;0.00;0.62;4.40;4.00;;;16.50;17.20;;;;;;2255605;61;20369;-51
2024/01/11 01:46:19;0.00;0.00;0.62;0.00;0.00;0.62;6.80;4.70;;;16.60;17.30;;;;;;2256440;61;20378;-52
2024/01/11 01:49:06;0.00;0.00;0.62;0.00;0.00;0.62;5.73;4.40;;;16.50;17.30;;;;;;2256232;61;20896;-53
2024/01/11 01:51:52;0.00;0.00;0.62;0.00;0.00;0.62;5.30;4.60;;;16.50;17.20;;;;;;2255688;61;20385;-55
2024/01/11 01:54:37;0.00;0.00;0.62;0.00;0.00;0.62;5.37;4.17;;;16.50;17.20;;;;;;2256323;61;20401;-56
2024/01/11 01:57:21;0.00;0.00;0.62;0.00;0.00;0.62;5.80;4.50;;;16.50;17.20;;;;;;2255914;61;20369;-51
2024/01/11 02:00:11;0.00;0.00;0.62;0.00;0.00;0.62;5.27;4.63;;;16.50;17.30;;;;;;2255754;61;20364;-56
2024/01/11 02:02:59;0.00;0.00;0.62;0.00;0.00;0.62;5.07;4.53;;;16.50;17.20;;;;;;2256102;61;20949;-54
2024/01/11 02:05:45;0.00;0.00;0.62;0.00;0.00;0.62;6.40;4.73;;;16.50;17.20;;;;;;2256269;61;20416;-54
2024/01/11 02:08:31;0.00;0.00;0.62;0.00;0.00;0.62;5.03;4.33;;;16.50;17.20;;;;;;2256340;61;20823;-53
2024/01/11 02:11:16;0.00;0.00;0.62;0.00;0.00;0.62;5.97;5.10;;;16.50;17.20;;;;;;2256216;61;20474;-58
2024/01/11 02:14:02;0.00;0.00;0.62;0.00;0.00;0.62;5.73;4.57;;;16.50;17.30;;;;;;2256611;61;20448;-53
2024/01/11 02:16:46;0.00;0.00;0.62;0.00;0.00;0.62;4.53;4.13;;;16.50;17.20;;;;;;2256761;61;20834;-51
2024/01/11 02:19:31;0.00;0.00;0.62;0.00;0.00;0.62;6.63;4.47;;;16.50;17.20;;;;;;2256881;61;20389;-55
2024/01/11 02:22:22;0.00;0.00;0.62;0.00;0.00;0.62;6.20;4.70;;;16.50;17.30;;;;;;2279203;58;20390;-53
2024/01/11 02:25:08;0.00;0.00;0.62;0.00;0.00;0.62;5.23;4.23;;;16.50;17.20;;;;;;2250970;61;20463;-56
2024/01/11 02:27:52;0.00;0.00;0.62;0.00;0.00;0.62;5.00;4.10;;;16.50;17.20;;;;;;2251942;61;20366;-52
2024/01/11 02:30:37;0.00;0.00;0.62;0.00;0.00;0.62;5.87;4.93;;;16.40;17.20;;;;;;2252331;61;20378;-54
2024/01/11 02:33:22;0.00;0.00;0.62;0.00;0.00;0.62;6.27;5.37;;;16.50;17.30;;;;;;2252022;61;20390;-52
2024/01/11 02:36:07;0.00;0.00;0.62;0.00;0.00;0.62;5.43;4.57;;;16.50;17.30;;;;;;2252732;61;20402;-52
2024/01/11 02:38:53;0.00;0.00;0.62;0.00;0.00;0.62;6.23;4.53;;;16.40;17.20;;;;;;2252819;61;20362;-53
2024/01/11 02:41:39;0.00;0.00;0.62;0.00;0.00;0.62;4.90;4.30;;;16.50;17.20;;;;;;2252440;61;20391;-54
2024/01/11 02:44:24;0.00;0.00;0.62;0.00;0.00;0.62;5.67;4.60;;;16.50;17.30;;;;;;2252348;61;20972;-50
2024/01/11 02:47:09;0.00;0.00;0.62;0.00;0.00;0.62;4.80;4.03;;;16.40;17.20;;;;;;2252782;61;20822;-57
2024/01/11 02:49:53;0.00;0.00;0.62;0.00;0.00;0.62;5.80;4.50;;;16.40;17.20;;;;;;2252432;61;20370;-54
2024/01/11 02:52:38;0.00;0.00;0.62;0.00;0.00;0.62;7.20;5.07;;;16.40;17.20;;;;;;2252348;61;20406;-53
2024/01/11 02:55:23;0.00;0.00;0.62;0.00;0.00;0.62;6.23;4.93;;;16.40;17.20;;;;;;2252808;61;20363;-55
2024/01/11 02:58:08;0.00;0.00;0.62;0.00;0.00;0.62;6.30;4.87;;;16.40;17.20;;;;;;2252520;61;20440;-57
2024/01/11 03:00:53;0.00;0.00;0.62;0.00;0.00;0.62;4.93;4.33;;;16.40;17.20;;;;;;2252502;61;20927;-55
2024/01/11 03:03:38;0.00;0.00;0.62;0.00;0.00;0.62;6.10;4.77;;;16.40;17.20;;;;;;2252314;61;20379;-57
2024/01/11 03:06:22;0.00;0.00;0.62;0.00;0.00;0.62;6.30;4.37;;;16.40;17.70;;;;;;2252363;61;20441;-53
2024/01/11 03:09:07;0.00;0.00;0.62;0.00;0.00;0.62;6.07;4.50;;;16.40;17.20;;;;;;2252791;61;20782;-53
2024/01/11 03:11:51;0.00;0.00;0.62;0.00;0.00;0.62;5.40;4.23;;;16.40;17.20;;;;;;2252083;61;20402;-53
2024/01/11 03:14:37;0.00;0.00;0.62;0.00;0.00;0.62;4.67;4.17;;;16.40;17.20;;;;;;2252579;61;20448;-54
2024/01/11 03:17:22;0.00;0.00;0.62;0.00;0.00;0.62;4.70;3.87;;;16.40;17.20;;;;;;2252547;61;20375;-55
2024/01/11 03:20:08;0.00;0.00;0.62;0.00;0.00;0.62;4.30;3.60;;;16.40;17.20;;;;;;2252525;61;20414;-51
2024/01/11 03:22:52;0.00;0.00;0.62;0.00;0.00;0.62;4.63;3.80;;;16.40;17.20;;;;;;2252216;61;20402;-55
2024/01/11 03:25:37;0.00;0.00;0.62;0.00;0.00;0.62;5.10;4.53;;;16.40;17.20;;;;;;2252705;61;20410;-57
2024/01/11 03:28:22;0.00;0.00;0.62;0.00;0.00;0.62;4.63;3.90;;;16.40;17.20;;;;;;2252193;61;20426;-57
2024/01/11 03:31:08;0.00;0.00;0.62;0.00;0.00;0.62;5.33;4.40;;;16.40;17.20;;;;;;2252612;61;20445;-52
2024/01/11 03:33:53;0.00;0.00;0.62;0.00;0.00;0.62;5.70;4.40;;;16.40;17.20;;;;;;2251814;61;20390;-57
2024/01/11 03:36:37;0.00;0.00;0.62;0.00;0.00;0.62;5.50;4.00;;;16.40;17.20;;;;;;2252524;61;20768;-50
2024/01/11 03:39:22;0.00;0.00;0.62;0.00;0.00;0.62;6.00;4.43;;;16.40;17.20;;;;;;2252532;61;20463;-53
2024/01/11 03:42:07;0.00;0.00;0.62;0.00;0.00;0.62;6.00;4.10;;;16.40;17.20;;;;;;2251789;61;20477;-56
2024/01/11 03:44:51;0.00;0.00;0.62;0.00;0.00;0.62;4.83;3.60;;;16.40;17.20;;;;;;2252688;61;20775;-58
2024/01/11 03:47:37;0.00;0.00;0.62;0.00;0.00;0.62;5.30;4.17;;;16.40;17.20;;;;;;2252788;61;20769;-55
2024/01/11 03:50:22;0.00;0.00;0.62;0.00;0.00;0.62;5.30;4.20;;;16.30;17.10;;;;;;2252090;61;20826;-57
2024/01/11 03:53:07;0.00;0.00;0.62;0.00;0.00;0.62;5.10;4.03;;;16.30;17.10;;;;;;2252229;61;20366;-56
2024/01/11 03:55:52;0.00;0.00;0.62;0.00;0.00;0.62;5.33;4.10;;;16.30;17.10;;;;;;2252230;61;20382;-55
2024/01/11 03:58:39;0.00;0.00;0.62;0.00;0.00;0.62;5.10;4.57;;;16.30;17.10;;;;;;2252796;61;20398;-52
2024/01/11 04:01:23;0.00;0.00;0.62;0.00;0.00;0.62;5.53;4.33;;;16.30;17.10;;;;;;2252361;61;20682;-50
2024/01/11 04:04:10;0.00;0.00;0.62;0.00;0.00;0.62;5.53;4.63;;;16.30;17.10;;;;;;2252314;61;20375;-53
2024/01/11 04:06:55;0.00;0.00;0.62;0.00;0.00;0.62;4.60;3.67;;;16.30;17.20;;;;;;2252624;61;20406;-52
2024/01/11 04:09:40;0.00;0.00;0.62;0.00;0.00;0.62;7.20;4.70;;;16.30;17.10;;;;;;2252529;61;20402;-52
2024/01/11 04:12:24;0.00;0.00;0.62;0.00;0.00;0.62;4.90;3.63;;;16.30;17.10;;;;;;2251588;61;20394;-54
2024/01/11 04:15:12;0.00;0.00;0.62;0.00;0.00;0.62;4.57;3.63;;;16.30;17.10;;;;;;2252434;61;20414;-56
2024/01/11 04:17:57;0.00;0.00;0.62;0.00;0.00;0.62;5.10;4.00;;;16.30;17.10;;;;;;2252284;61;20383;-53
2024/01/11 04:20:43;0.00;0.00;0.62;0.00;0.00;0.62;7.00;4.77;;;16.30;17.10;;;;;;2252350;61;20451;-56
2024/01/11 04:23:27;0.00;0.00;0.62;0.00;0.00;0.62;4.87;3.80;;;16.30;17.20;;;;;;2251743;61;20397;-54
2024/01/11 04:26:12;0.00;0.00;0.62;0.00;0.00;0.62;6.17;4.10;;;16.30;17.10;;;;;;2252110;61;20406;-56
2024/01/11 04:28:58;0.00;0.00;0.62;0.00;0.00;0.62;5.60;3.93;;;16.30;17.10;;;;;;2252321;61;20882;-53
2024/01/11 04:31:42;0.00;0.00;0.62;0.00;0.00;0.62;5.20;4.70;;;16.30;17.20;;;;;;2251407;61;20471;-54
2024/01/11 04:34:27;0.00;0.00;0.62;0.00;0.00;0.62;4.90;4.00;;;16.30;17.10;;;;;;2252180;61;20785;-57
2024/01/11 04:37:13;0.00;0.00;0.62;0.00;0.00;0.62;4.47;3.50;;;16.30;17.20;;;;;;2252256;61;20417;-57
2024/01/11 04:39:59;0.00;0.00;0.62;0.00;0.00;0.62;6.83;4.30;;;16.20;17.30;;;;;;2252225;61;20482;-57
2024/01/11 04:42:44;0.00;0.00;0.62;0.00;0.00;0.62;5.17;4.20;;;16.20;17.10;;;;;;2251696;61;20398;-49
2024/01/11 04:45:29;0.00;0.00;0.62;0.00;0.00;0.62;5.93;4.47;;;16.30;17.20;;;;;;2252352;61;20371;-54
2024/01/11 04:48:13;0.00;0.00;0.62;0.00;0.00;0.62;5.13;4.03;;;16.20;17.10;;;;;;2252114;61;20374;-54
2024/01/11 04:50:58;0.00;0.00;0.62;0.00;0.00;0.62;5.87;4.17;;;16.30;17.20;;;;;;2252259;61;20387;-54
2024/01/11 04:53:45;0.00;0.00;0.62;0.00;0.00;0.62;6.00;4.40;;;16.30;17.20;;;;;;2252095;61;20441;-56
2024/01/11 04:56:30;0.00;0.00;0.62;0.00;0.00;0.62;5.00;4.43;;;16.30;17.20;;;;;;2252001;61;20421;-51
2024/01/11 04:59:15;0.00;0.00;0.62;0.00;0.00;0.62;5.53;4.50;;;16.20;17.10;;;;;;2252424;61;20393;-57
2024/01/11 05:01:59;0.00;0.00;0.62;0.00;0.00;0.62;5.03;4.17;;;16.20;17.10;;;;;;2251896;61;20383;-55
2024/01/11 05:04:44;0.00;0.00;0.62;0.00;0.00;0.62;5.17;4.03;;;16.20;17.10;;;;;;2252062;61;20790;-52
2024/01/11 05:07:28;0.00;0.00;0.62;0.00;0.00;0.62;4.90;3.83;;;16.20;17.10;;;;;;2252223;61;20440;-52
2024/01/11 05:10:15;0.00;0.00;0.62;0.00;0.00;0.62;5.10;3.67;;;16.20;17.20;;;;;;2252129;61;20390;-55
2024/01/11 05:12:59;0.00;0.00;0.62;0.00;0.00;0.62;4.43;3.40;;;16.20;17.10;;;;;;2251970;61;20409;-56
2024/01/11 05:15:44;0.00;0.00;0.62;0.00;0.00;0.62;5.70;4.63;;;16.20;17.20;;;;;;2252354;61;20390;-56
2024/01/11 05:18:28;0.00;0.00;0.62;0.00;0.00;0.62;5.53;4.00;;;16.20;17.10;;;;;;2251982;61;20564;-54
2024/01/11 05:21:13;0.00;0.00;0.62;0.00;0.00;0.62;5.50;4.00;;;16.20;17.20;;;;;;2252108;61;20406;-56
2024/01/11 05:23:57;0.00;0.00;0.62;0.00;0.00;0.62;6.30;4.20;;;16.20;17.20;;;;;;2252013;61;20450;-54
2024/01/11 05:26:43;0.00;0.00;0.62;0.00;0.00;0.62;6.00;4.63;;;16.20;17.20;;;;;;2251832;61;20812;-58
2024/01/11 05:29:28;0.00;0.00;0.62;0.00;0.00;0.62;5.13;4.60;;;16.20;17.20;;;;;;2252267;61;20367;-57
2024/01/11 05:32:12;0.00;0.00;0.62;0.00;0.00;0.62;5.53;4.00;;;16.20;17.20;;;;;;2251797;61;20434;-57
2024/01/11 05:34:57;0.00;0.00;0.62;0.00;0.00;0.62;4.90;4.40;;;16.20;17.70;;;;;;2252131;61;20541;-55
2024/01/11 05:37:41;0.00;0.00;0.62;0.00;0.00;0.62;5.70;4.23;;;16.20;17.20;;;;;;2252298;61;20377;-55
2024/01/11 05:40:27;0.00;0.00;0.62;0.00;0.00;0.62;4.93;4.33;;;16.20;17.70;;;;;;2251746;61;20366;-53
2024/01/11 05:43:13;0.00;0.00;0.62;0.00;0.00;0.62;5.73;4.80;;;16.20;17.20;;;;;;2251900;61;20895;-55
2024/01/11 05:45:58;0.00;0.00;0.62;0.00;0.00;0.62;5.57;4.23;;;16.20;17.20;;;;;;2252084;61;20933;-55
2024/01/11 05:48:43;0.00;0.00;0.62;0.00;0.00;0.62;5.60;4.40;;;16.20;17.20;;;;;;2252556;61;20383;-53
2024/01/11 05:51:27;0.00;0.00;0.62;0.00;0.00;0.62;4.93;4.20;;;16.20;17.20;;;;;;2252897;61;20798;-54
2024/01/11 05:54:11;0.00;0.00;0.62;0.00;0.00;0.62;4.87;3.80;;;16.10;17.10;;;;;;2252763;61;20474;-53
2024/01/11 05:56:57;0.00;0.00;0.62;0.00;0.00;0.62;4.20;3.80;;;16.20;17.20;;;;;;2252943;61;20475;-54
2024/01/11 05:59:45;0.00;0.00;0.62;0.00;0.00;0.62;5.00;4.20;;;16.20;17.20;;;;;;2252768;61;20414;-54
2024/01/11 06:02:31;0.00;0.00;0.62;0.00;0.00;0.62;6.03;4.43;;;16.10;17.10;;;;;;2252091;61;20392;-55
2024/01/11 06:05:16;0.00;0.00;0.62;0.00;0.00;0.62;5.03;4.53;;;16.10;17.10;;;;;;2252843;61;20417;-54
2024/01/11 06:08:00;0.00;0.00;0.62;0.00;0.00;0.62;5.40;4.07;;;16.10;17.10;;;;;;2252850;61;20445;-55
2024/01/11 06:10:45;0.00;0.00;0.62;0.00;0.00;0.62;5.43;3.73;;;16.10;17.10;;;;;;2252539;61;20375;-54
2024/01/11 06:13:29;0.00;0.00;0.62;0.00;0.00;0.62;5.93;5.03;;;16.10;17.10;;;;;;2252416;61;20437;-53
2024/01/11 06:16:15;0.00;0.00;0.62;0.00;0.00;0.62;5.60;4.30;;;16.10;17.10;;;;;;2252925;61;21173;-55
2024/01/11 06:19:00;0.00;0.00;0.62;0.00;0.00;0.62;5.00;3.50;;;16.10;17.10;;;;;;2252530;61;20371;-56
2024/01/11 06:21:44;0.00;0.00;0.62;0.00;0.00;0.62;5.40;4.17;;;16.10;17.10;;;;;;2252539;61;20857;-55
2024/01/11 06:24:29;0.00;0.00;0.62;0.00;0.00;0.62;4.73;3.77;;;16.10;17.10;;;;;;2252643;61;20347;-51
2024/01/11 06:27:13;0.00;0.00;0.62;0.00;0.00;0.62;5.77;4.17;;;16.10;17.10;;;;;;2253009;61;20370;-57
2024/01/11 06:29:58;0.00;0.00;0.62;0.00;0.00;0.62;5.43;4.37;;;16.10;17.10;;;;;;2252637;61;20402;-56
2024/01/11 06:32:44;0.00;0.00;0.62;0.00;0.00;0.62;4.83;3.80;;;16.10;17.10;;;;;;2251620;61;20410;-57
2024/01/11 06:35:30;0.00;0.00;0.62;0.00;0.00;0.62;6.60;4.10;;;16.10;17.20;;;;;;2252680;61;20394;-58
2024/01/11 06:38:15;0.00;0.00;0.62;0.00;0.00;0.62;4.63;3.87;;;16.10;17.10;;;;;;2252871;61;20374;-55
2024/01/11 06:41:00;0.00;0.00;0.62;0.00;0.00;0.62;6.43;4.30;;;16.10;17.70;;;;;;2252534;61;20391;-53
2024/01/11 06:43:44;0.00;0.00;0.62;0.00;0.00;0.62;4.90;3.70;;;16.10;17.20;;;;;;2252308;61;20399;-56
2024/01/11 06:46:30;0.00;0.00;0.62;0.00;0.00;0.62;6.20;4.90;;;16.10;17.20;;;;;;2252264;61;20444;-51
2024/01/11 06:49:16;0.00;0.00;0.62;0.00;0.00;0.62;6.00;4.57;;;16.10;17.20;;;;;;2252877;61;20402;-56
2024/01/11 06:52:01;0.00;0.00;0.62;0.00;0.00;0.62;6.17;4.57;;;16.10;17.20;;;;;;2252406;61;20794;-53
2024/01/11 06:54:45;0.00;0.00;0.62;0.00;0.00;0.62;8.10;4.40;;;16.10;17.20;;;;;;2252319;61;20843;-54
2024/01/11 06:57:30;0.00;0.00;0.62;0.00;0.00;0.62;5.33;4.30;;;16.10;17.20;;;;;;2252672;61;20770;-55
2024/01/11 07:00:15;0.00;0.00;0.62;0.00;0.00;0.62;5.10;3.63;;;16.10;17.20;;;;;;2252527;61;20371;-53
2024/01/11 07:02:59;0.00;0.00;0.62;0.00;0.00;0.62;5.50;3.90;;;16.00;17.10;;;;;;2251986;61;20377;-53
2024/01/11 07:05:45;0.00;0.00;0.62;0.00;0.00;0.62;5.27;4.00;;;16.10;17.20;;;;;;2252439;61;20904;-58
2024/01/11 07:08:30;0.00;0.00;0.62;0.00;0.00;0.62;4.67;3.90;;;16.10;17.30;;;;;;2252264;61;20363;-57
2024/01/11 07:11:15;0.00;0.00;0.62;0.00;0.00;0.62;5.70;4.53;;;16.00;17.10;;;;;;2252721;61;20391;-57
2024/01/11 07:13:59;0.00;0.00;0.62;0.00;0.00;0.62;5.13;4.20;;;16.10;17.20;;;;;;2252497;61;20390;-54
2024/01/11 07:16:44;0.00;0.00;0.62;0.00;0.00;0.62;5.47;3.90;;;16.00;17.10;;;;;;2252271;61;20375;-54
2024/01/11 07:19:29;0.00;0.00;0.62;0.00;0.00;0.62;5.07;4.20;;;16.00;17.10;;;;;;2252664;61;20443;-56
2024/01/11 07:22:15;0.00;0.00;0.62;0.00;0.00;0.62;4.33;3.90;;;16.00;17.20;;;;;;2252237;61;20526;-57
2024/01/11 07:24:59;0.00;0.00;0.62;0.00;0.00;0.62;5.80;4.40;;;16.00;17.20;;;;;;2252279;61;20367;-53
2024/01/11 07:27:44;0.00;0.00;0.62;0.00;0.00;0.62;5.57;3.93;;;16.00;17.20;;;;;;2252637;61;20382;-58
2024/01/11 07:30:29;0.00;0.00;0.62;0.00;0.00;0.62;5.20;4.00;;;16.00;17.20;;;;;;2252552;61;20366;-52
2024/01/11 07:33:13;0.00;0.00;0.62;0.00;0.00;0.62;4.47;3.83;;;16.00;17.20;;;;;;2252211;61;20916;-55
2024/01/11 07:35:58;0.00;0.00;0.62;0.00;0.00;0.62;4.00;3.60;;;16.00;17.20;;;;;;2252576;61;20378;-58
2024/01/11 07:38:44;0.00;0.00;0.62;0.00;0.00;0.62;4.90;4.40;;;16.00;17.30;;;;;;2252447;61;20866;-57
2024/01/11 07:41:29;0.00;0.00;0.62;0.00;0.00;0.62;5.77;4.27;;;16.00;17.30;;;;;;2252540;61;20387;-55
2024/01/11 07:44:14;0.00;0.00;0.62;0.00;0.00;0.62;5.77;4.53;;;16.00;17.30;;;;;;2252667;61;20433;-55
2024/01/11 07:46:58;0.00;0.00;0.62;0.00;0.00;0.62;5.97;4.53;;;16.00;17.30;;;;;;2252274;61;20383;-59
2024/01/11 07:49:43;0.00;0.00;0.62;0.00;0.00;0.62;6.40;5.30;;;16.00;17.30;;;;;;2252495;61;20363;-52
2024/01/11 07:52:27;0.00;0.00;0.62;0.00;0.00;0.62;6.27;4.90;;;16.00;17.30;;;;;;2252118;61;20390;-57
2024/01/11 07:55:14;0.00;0.00;0.62;0.00;0.00;0.62;7.37;5.03;;;16.00;17.30;;;;;;2252231;61;20483;-57
2024/01/11 07:57:58;0.00;0.00;0.62;0.00;0.00;0.62;6.33;5.30;;;16.00;17.30;;;;;;2252450;61;20942;-56
2024/01/11 08:00:50;0.00;0.00;0.62;0.00;0.00;0.62;7.00;5.33;;;16.00;17.30;;;;;;2256081;48;20366;-53
2024/01/11 08:03:35;0.00;0.00;0.62;0.00;0.00;0.62;8.80;6.07;;;16.00;17.30;;;;;;2249880;61;20404;-53
2024/01/11 08:06:19;0.00;0.00;0.62;0.00;0.00;0.62;7.40;6.00;;;16.00;17.30;;;;;;2248531;61;20499;-52
2024/01/11 08:09:04;0.00;0.00;0.62;0.00;0.00;0.62;6.30;5.33;;;16.00;17.30;;;;;;2248223;61;20372;-58
2024/01/11 08:11:52;0.00;0.00;0.62;0.00;0.00;0.62;5.20;4.70;;;16.00;17.30;;;;;;2248111;61;20392;-52
2024/01/11 08:14:36;0.00;0.00;0.62;0.00;0.00;0.62;9.20;6.43;;;16.00;17.30;;;;;;2248646;61;20387;-55
2024/01/11 08:17:21;0.00;0.00;0.62;0.00;0.00;0.62;6.10;4.80;;;16.00;17.30;;;;;;2248348;61;20406;-55
2024/01/11 08:20:08;0.00;0.00;0.62;0.00;0.00;0.62;7.57;5.30;;;16.00;17.30;;;;;;2248458;61;20379;-57
2024/01/11 08:22:53;0.00;0.00;0.62;0.00;0.00;0.62;7.43;5.53;;;16.00;17.30;;;;;;2247869;61;20477;-55
2024/01/11 08:25:37;0.00;0.00;0.62;0.00;0.00;0.62;7.30;5.70;;;16.00;17.30;;;;;;2248402;61;20348;-56
2024/01/11 08:28:23;0.00;0.00;0.62;0.00;0.00;0.62;7.47;5.50;;;16.00;17.30;;;;;;2248512;61;20434;-54
2024/01/11 08:31:08;0.00;0.00;0.62;0.00;0.00;0.62;6.60;5.23;;;16.00;17.30;;;;;;2247870;61;20813;-55
2024/01/11 08:33:53;0.00;0.00;0.62;0.00;0.00;0.62;6.77;5.83;;;16.00;17.30;;;;;;2248169;61;20376;-53
2024/01/11 08:36:38;0.00;0.00;0.62;0.00;0.00;0.62;6.57;5.40;;;16.00;17.30;;;;;;2248459;61;20475;-56
2024/01/11 08:39:23;0.00;0.00;0.62;0.00;0.00;0.62;6.97;5.20;;;16.00;17.30;;;;;;2248208;61;20452;-54
2024/01/11 08:42:07;0.00;0.00;0.62;0.00;0.00;0.62;6.13;5.53;;;15.90;17.30;;;;;;2248033;61;20976;-54
2024/01/11 08:44:53;0.00;0.00;0.62;0.00;0.00;0.62;6.37;5.27;;;16.00;17.30;;;;;;2248315;61;20372;-54
2024/01/11 08:47:40;0.00;0.00;0.62;0.00;0.00;0.62;6.43;5.40;;;16.00;17.40;;;;;;2248292;61;20935;-52
2024/01/11 08:50:25;0.00;0.00;0.62;0.00;0.00;0.62;5.80;5.03;;;16.00;17.40;;;;;;2248864;61;20387;-54
2024/01/11 08:53:09;0.00;0.00;0.62;0.00;0.00;0.62;7.20;6.07;;;16.00;17.40;;;;;;2247819;61;20367;-55
2024/01/11 08:55:54;0.00;0.00;0.62;0.00;0.00;0.62;6.00;5.30;;;16.00;17.40;;;;;;2248428;61;20359;-54
2024/01/11 08:58:40;0.00;0.00;0.62;0.00;0.00;0.62;7.80;6.13;;;16.00;17.40;;;;;;2248337;61;20419;-52
2024/01/11 09:01:26;0.00;0.00;0.62;0.00;0.00;0.62;5.37;4.60;;;16.00;17.40;;;;;;2248319;61;20453;-53
2024/01/11 09:04:11;0.00;0.00;0.62;0.00;0.00;0.62;6.20;5.13;;;16.00;17.40;;;;;;2248477;61;20407;-57
2024/01/11 09:06:56;0.00;0.00;0.62;0.00;0.00;0.62;6.70;5.50;;;16.00;17.40;;;;;;2248257;61;20371;-52
2024/01/11 09:09:40;0.00;0.00;0.62;0.00;0.00;0.62;7.20;5.20;;;16.00;17.40;;;;;;2248305;61;20371;-57
2024/01/11 09:12:25;0.00;0.00;0.62;0.00;0.00;0.62;5.13;4.27;;;16.00;17.40;;;;;;2248072;61;20411;-55
2024/01/11 09:15:10;0.00;0.00;0.62;0.00;0.00;0.62;7.07;4.90;;;16.00;17.40;;;;;;2248095;61;20419;-54
2024/01/11 09:17:56;0.00;0.00;0.62;0.00;0.00;0.62;6.23;4.97;;;16.00;17.40;;;;;;2248537;61;20371;-54
2024/01/11 09:20:40;0.00;0.00;0.62;0.00;0.00;0.62;5.80;4.87;;;16.00;17.40;;;;;;2248227;61;20395;-51
2024/01/11 09:23:25;0.00;0.00;0.62;0.00;0.00;0.62;7.03;5.43;;;16.00;17.40;;;;;;2248328;61;20407;-57
2024/01/11 09:26:10;0.00;0.00;0.62;0.00;0.00;0.62;6.00;5.00;;;16.00;17.40;;;;;;2249199;61;20367;-53
2024/01/11 09:28:54;0.00;0.00;0.62;0.00;0.00;0.62;6.30;5.40;;;16.00;17.40;;;;;;2249091;61;20899;-56
2024/01/11 09:31:38;0.00;0.00;0.62;0.00;0.00;0.62;6.10;4.30;;;16.00;17.40;;;;;;2248570;61;20431;-58
2024/01/11 09:34:24;0.00;0.00;0.62;0.00;0.00;0.62;6.00;4.70;;;16.00;17.40;;;;;;2248966;61;20426;-55
2024/01/11 09:37:09;0.00;0.00;0.62;0.00;0.00;0.62;7.40;4.70;;;16.00;17.40;;;;;;2248512;61;20375;-55
2024/01/11 09:39:54;0.00;0.00;0.62;0.00;0.00;0.62;5.47;4.70;;;16.00;17.40;;;;;;2249129;61;20506;-58
2024/01/11 09:42:39;0.00;0.00;0.62;0.00;0.00;0.62;7.20;5.20;;;16.00;17.40;;;;;;2248520;61;20435;-56
2024/01/11 09:45:25;0.00;0.00;0.62;0.00;0.00;0.62;5.37;4.53;;;16.00;17.40;;;;;;2248918;61;20766;-54
2024/01/11 09:48:10;0.00;0.00;0.62;0.00;0.00;0.62;5.73;4.80;;;16.00;17.40;;;;;;2248952;61;20674;-52
2024/01/11 09:50:59;0.00;0.00;0.62;0.00;0.00;0.62;5.70;4.90;;;16.00;17.40;;;;;;2248874;61;20399;-55
2024/01/11 09:53:44;0.00;0.00;0.62;0.00;0.00;0.62;7.23;5.10;;;16.00;17.40;;;;;;2248469;61;20438;-51
2024/01/11 09:56:28;0.00;0.00;0.62;0.00;0.00;0.62;5.90;4.67;;;16.00;17.40;;;;;;2249046;61;20367;-51
2024/01/11 09:59:14;0.00;0.00;0.62;0.00;0.00;0.62;6.17;4.83;;;16.00;17.40;;;;;;2248474;61;20415;-52
2024/01/11 10:02:00;0.00;0.00;0.62;0.00;0.00;0.62;6.47;4.97;;;16.00;17.40;;;;;;2248629;61;20439;-53
2024/01/11 10:04:46;0.00;0.00;0.62;0.00;0.00;0.62;7.50;5.37;;;16.00;17.40;;;;;;2248941;61;20360;-54
2024/01/11 10:07:33;0.00;0.00;0.62;0.00;0.00;0.62;6.90;5.00;;;16.00;17.40;;;;;;2248768;61;20371;-55
2024/01/11 10:10:19;0.00;0.00;0.62;0.00;0.00;0.62;6.27;5.20;;;16.00;17.40;;;;;;2248963;61;20360;-54
2024/01/11 10:13:05;0.00;0.00;0.62;0.00;0.00;0.62;5.90;4.33;;;16.00;17.40;;;;;;2248577;61;20415;-57
2024/01/11 10:15:50;0.00;0.00;0.62;0.00;0.00;0.62;6.67;5.30;;;16.00;17.40;;;;;;2248548;61;20411;-56
2024/01/11 10:18:35;0.00;0.00;0.62;0.00;0.00;0.62;6.03;4.63;;;16.00;17.40;;;;;;2251205;61;20717;-53
2024/01/11 10:21:19;0.00;0.00;0.62;0.00;0.00;0.62;6.80;5.10;;;16.00;17.40;;;;;;2248551;61;20399;-57
2024/01/11 10:24:06;0.00;0.00;0.62;0.00;0.00;0.62;6.10;4.30;;;16.00;17.40;;;;;;2248926;61;20411;-53
2024/01/11 10:26:51;0.00;0.00;0.62;0.00;0.00;0.62;4.83;4.33;;;16.00;17.40;;;;;;2248842;61;20376;-55
2024/01/11 10:29:36;0.00;0.00;0.62;0.00;0.00;0.62;5.93;5.10;;;16.00;17.40;;;;;;2248600;61;20778;-55
2024/01/11 10:32:20;0.00;0.00;0.62;0.00;0.00;0.62;6.00;4.13;;;16.00;17.40;;;;;;2250690;61;20832;-55
2024/01/11 10:35:06;0.00;0.00;0.62;0.00;0.00;0.62;7.30;5.13;;;16.00;17.40;;;;;;2248823;61;20935;-57
2024/01/11 10:37:53;0.00;0.00;0.62;0.00;0.00;0.62;6.10;4.87;;;16.00;17.40;;;;;;2248597;61;20380;-56
2024/01/11 10:40:41;0.00;0.00;0.62;0.00;0.00;0.62;6.27;4.70;;;16.00;17.40;;;;;;2248797;61;20363;-57
2024/01/11 10:43:27;0.00;0.00;0.62;0.00;0.00;0.62;7.80;5.00;;;16.00;17.40;;;;;;2248264;61;20799;-57
2024/01/11 10:46:13;0.00;0.00;0.62;0.00;0.00;0.62;7.00;5.47;;;16.00;17.40;;;;;;2248776;61;20904;-52
2024/01/11 10:49:03;0.00;0.00;0.62;0.00;0.00;0.62;6.50;5.47;;;16.00;17.40;;;;;;2248712;61;20368;-55
2024/01/11 10:51:57;0.00;0.00;0.62;0.00;0.00;0.62;5.23;4.33;;;16.00;17.40;;;;;;2248087;61;20932;-52